sensor_id;sensor_type;location;lat;lon;timestamp;P1;durP1;ratioP1;P2;durP2;ratioP2
45316;SDS011;31053;55.870;37.592;2023-02-04T00:01:48;8.23;;;3.08;;
45316;SDS011;31053;55.870;37.592;2023-02-04T00:04:56;7.35;;;4.18;;
45316;SDS011;31053;55.870;37.592;2023-02-04T00:08:01;6.10;;;2.95;;
45316;SDS011;31053;55.870;37.592;2023-02-04T00:11:06;4.68;;;2.22;;
45316;SDS011;31053;55.870;37.592;2023-02-04T00:14:10;4.57;;;2.60;;
45316;SDS011;31053;55.870;37.592;2023-02-04T00:17:14;3.80;;;2.40;;
45316;SDS011;31053;55.870;37.592;2023-02-04T00:20:19;4.60;;;2.60;;
45316;SDS011;31053;55.870;37.592;2023-02-04T00:23:23;4.78;;;3.00;;
45316;SDS011;31053;55.870;37.592;2023-02-04T00:26:28;4.07;;;2.28;;
45316;SDS011;31053;55.870;37.592;2023-02-04T00:29:33;4.80;;;2.25;;
45316;SDS011;31053;55.870;37.592;2023-02-04T00:32:37;3.03;;;1.55;;
45316;SDS011;31053;55.870;37.592;2023-02-04T00:35:42;3.45;;;2.08;;
45316;SDS011;31053;55.870;37.592;2023-02-04T00:38:46;6.35;;;4.03;;
45316;SDS011;31053;55.870;37.592;2023-02-04T00:41:51;4.13;;;2.58;;
45316;SDS011;31053;55.870;37.592;2023-02-04T00:44:55;3.97;;;2.55;;
45316;SDS011;31053;55.870;37.592;2023-02-04T00:48:01;6.38;;;3.22;;
45316;SDS011;31053;55.870;37.592;2023-02-04T00:51:06;6.70;;;3.13;;
45316;SDS011;31053;55.870;37.592;2023-02-04T00:54:11;4.78;;;3.17;;
45316;SDS011;31053;55.870;37.592;2023-02-04T00:57:17;4.22;;;2.72;;
45316;SDS011;31053;55.870;37.592;2023-02-04T01:00:21;5.60;;;3.95;;
45316;SDS011;31053;55.870;37.592;2023-02-04T01:03:26;6.10;;;3.33;;
45316;SDS011;31053;55.870;37.592;2023-02-04T01:06:31;4.47;;;2.97;;
45316;SDS011;31053;55.870;37.592;2023-02-04T01:09:35;6.32;;;3.78;;
45316;SDS011;31053;55.870;37.592;2023-02-04T01:12:42;6.10;;;2.97;;
45316;SDS011;31053;55.870;37.592;2023-02-04T01:15:46;4.43;;;3.08;;
45316;SDS011;31053;55.870;37.592;2023-02-04T01:18:53;7.45;;;3.95;;
45316;SDS011;31053;55.870;37.592;2023-02-04T01:25:03;7.45;;;3.97;;
45316;SDS011;31053;55.870;37.592;2023-02-04T01:28:18;7.47;;;4.10;;
45316;SDS011;31053;55.870;37.592;2023-02-04T01:31:22;8.38;;;3.78;;
45316;SDS011;31053;55.870;37.592;2023-02-04T01:34:27;6.20;;;4.55;;
45316;SDS011;31053;55.870;37.592;2023-02-04T01:37:34;8.80;;;3.40;;
45316;SDS011;31053;55.870;37.592;2023-02-04T01:40:39;8.48;;;4.63;;
45316;SDS011;31053;55.870;37.592;2023-02-04T01:43:47;7.72;;;4.18;;
45316;SDS011;31053;55.870;37.592;2023-02-04T01:46:52;7.32;;;4.22;;
45316;SDS011;31053;55.870;37.592;2023-02-04T01:49:57;9.35;;;4.05;;
45316;SDS011;31053;55.870;37.592;2023-02-04T01:53:02;5.53;;;3.38;;
45316;SDS011;31053;55.870;37.592;2023-02-04T01:56:15;8.77;;;5.07;;
45316;SDS011;31053;55.870;37.592;2023-02-04T01:59:21;6.50;;;3.75;;
45316;SDS011;31053;55.870;37.592;2023-02-04T02:06:00;5.10;;;3.28;;
45316;SDS011;31053;55.870;37.592;2023-02-04T02:09:05;9.52;;;4.72;;
45316;SDS011;31053;55.870;37.592;2023-02-04T02:12:10;7.03;;;3.90;;
45316;SDS011;31053;55.870;37.592;2023-02-04T02:15:15;6.15;;;3.88;;
45316;SDS011;31053;55.870;37.592;2023-02-04T02:18:20;7.55;;;4.65;;
45316;SDS011;31053;55.870;37.592;2023-02-04T02:21:30;6.60;;;3.42;;
45316;SDS011;31053;55.870;37.592;2023-02-04T02:24:41;8.73;;;4.57;;
45316;SDS011;31053;55.870;37.592;2023-02-04T02:27:46;9.98;;;4.82;;
45316;SDS011;31053;55.870;37.592;2023-02-04T02:30:50;6.93;;;3.95;;
45316;SDS011;31053;55.870;37.592;2023-02-04T02:33:55;7.72;;;4.15;;
45316;SDS011;31053;55.870;37.592;2023-02-04T02:37:00;7.75;;;4.70;;
45316;SDS011;31053;55.870;37.592;2023-02-04T02:40:05;12.75;;;4.97;;
45316;SDS011;31053;55.870;37.592;2023-02-04T02:43:14;7.75;;;3.72;;
45316;SDS011;31053;55.870;37.592;2023-02-04T02:46:20;5.22;;;3.08;;
45316;SDS011;31053;55.870;37.592;2023-02-04T02:49:25;7.85;;;3.78;;
45316;SDS011;31053;55.870;37.592;2023-02-04T02:52:32;5.47;;;2.83;;
45316;SDS011;31053;55.870;37.592;2023-02-04T02:55:37;8.85;;;4.50;;
45316;SDS011;31053;55.870;37.592;2023-02-04T02:58:43;8.25;;;4.43;;
45316;SDS011;31053;55.870;37.592;2023-02-04T03:01:49;5.75;;;3.42;;
45316;SDS011;31053;55.870;37.592;2023-02-04T03:04:58;10.13;;;3.92;;
45316;SDS011;31053;55.870;37.592;2023-02-04T03:08:07;4.95;;;3.10;;
45316;SDS011;31053;55.870;37.592;2023-02-04T03:11:12;7.75;;;3.67;;
45316;SDS011;31053;55.870;37.592;2023-02-04T03:14:18;8.52;;;4.15;;
45316;SDS011;31053;55.870;37.592;2023-02-04T03:17:23;9.95;;;3.97;;
45316;SDS011;31053;55.870;37.592;2023-02-04T03:20:28;5.53;;;3.60;;
45316;SDS011;31053;55.870;37.592;2023-02-04T03:23:35;4.53;;;2.83;;
45316;SDS011;31053;55.870;37.592;2023-02-04T03:26:41;4.55;;;2.15;;
45316;SDS011;31053;55.870;37.592;2023-02-04T03:29:46;7.18;;;3.30;;
45316;SDS011;31053;55.870;37.592;2023-02-04T03:32:51;7.82;;;3.33;;
45316;SDS011;31053;55.870;37.592;2023-02-04T03:35:57;5.55;;;3.42;;
45316;SDS011;31053;55.870;37.592;2023-02-04T03:39:03;4.75;;;2.47;;
45316;SDS011;31053;55.870;37.592;2023-02-04T03:42:07;10.57;;;5.05;;
45316;SDS011;31053;55.870;37.592;2023-02-04T03:45:12;6.28;;;3.22;;
45316;SDS011;31053;55.870;37.592;2023-02-04T03:48:17;6.65;;;3.50;;
45316;SDS011;31053;55.870;37.592;2023-02-04T03:51:22;4.82;;;2.55;;
45316;SDS011;31053;55.870;37.592;2023-02-04T03:54:26;8.68;;;3.15;;
45316;SDS011;31053;55.870;37.592;2023-02-04T03:57:31;13.88;;;3.92;;
45316;SDS011;31053;55.870;37.592;2023-02-04T04:00:36;5.68;;;2.88;;
45316;SDS011;31053;55.870;37.592;2023-02-04T04:03:40;5.50;;;3.00;;
45316;SDS011;31053;55.870;37.592;2023-02-04T04:06:45;4.10;;;1.95;;
45316;SDS011;31053;55.870;37.592;2023-02-04T04:09:50;3.67;;;2.00;;
45316;SDS011;31053;55.870;37.592;2023-02-04T04:12:55;5.25;;;2.30;;
45316;SDS011;31053;55.870;37.592;2023-02-04T04:16:00;6.68;;;2.53;;
45316;SDS011;31053;55.870;37.592;2023-02-04T04:19:06;5.20;;;2.92;;
45316;SDS011;31053;55.870;37.592;2023-02-04T04:22:11;6.25;;;3.40;;
45316;SDS011;31053;55.870;37.592;2023-02-04T04:25:16;6.07;;;2.40;;
45316;SDS011;31053;55.870;37.592;2023-02-04T04:28:21;5.30;;;3.00;;
45316;SDS011;31053;55.870;37.592;2023-02-04T04:31:25;5.43;;;2.22;;
45316;SDS011;31053;55.870;37.592;2023-02-04T04:34:31;3.47;;;2.35;;
45316;SDS011;31053;55.870;37.592;2023-02-04T04:37:36;4.85;;;2.58;;
45316;SDS011;31053;55.870;37.592;2023-02-04T04:40:42;4.20;;;2.45;;
45316;SDS011;31053;55.870;37.592;2023-02-04T04:43:47;7.15;;;3.80;;
45316;SDS011;31053;55.870;37.592;2023-02-04T04:46:52;4.60;;;3.00;;
45316;SDS011;31053;55.870;37.592;2023-02-04T04:49:57;6.88;;;3.83;;
45316;SDS011;31053;55.870;37.592;2023-02-04T04:53:01;5.47;;;2.95;;
45316;SDS011;31053;55.870;37.592;2023-02-04T04:56:06;5.75;;;3.13;;
45316;SDS011;31053;55.870;37.592;2023-02-04T04:59:11;6.72;;;2.80;;
45316;SDS011;31053;55.870;37.592;2023-02-04T05:02:15;5.88;;;2.92;;
45316;SDS011;31053;55.870;37.592;2023-02-04T05:05:20;4.80;;;2.53;;
45316;SDS011;31053;55.870;37.592;2023-02-04T05:08:25;4.88;;;3.20;;
45316;SDS011;31053;55.870;37.592;2023-02-04T05:11:29;7.38;;;2.10;;
45316;SDS011;31053;55.870;37.592;2023-02-04T05:14:35;5.10;;;2.42;;
45316;SDS011;31053;55.870;37.592;2023-02-04T05:17:39;9.95;;;3.80;;
45316;SDS011;31053;55.870;37.592;2023-02-04T05:20:44;5.35;;;3.05;;
45316;SDS011;31053;55.870;37.592;2023-02-04T05:23:49;6.72;;;3.40;;
45316;SDS011;31053;55.870;37.592;2023-02-04T05:26:54;5.65;;;3.22;;
45316;SDS011;31053;55.870;37.592;2023-02-04T05:29:58;4.28;;;2.58;;
45316;SDS011;31053;55.870;37.592;2023-02-04T05:33:02;13.52;;;4.80;;
45316;SDS011;31053;55.870;37.592;2023-02-04T05:36:07;11.13;;;5.55;;
45316;SDS011;31053;55.870;37.592;2023-02-04T05:39:11;7.72;;;3.92;;
45316;SDS011;31053;55.870;37.592;2023-02-04T05:42:16;6.50;;;3.67;;
45316;SDS011;31053;55.870;37.592;2023-02-04T05:45:21;10.13;;;4.97;;
45316;SDS011;31053;55.870;37.592;2023-02-04T05:48:25;13.95;;;5.13;;
45316;SDS011;31053;55.870;37.592;2023-02-04T05:51:34;9.77;;;5.65;;
45316;SDS011;31053;55.870;37.592;2023-02-04T05:54:39;12.77;;;6.85;;
45316;SDS011;31053;55.870;37.592;2023-02-04T05:57:43;15.82;;;6.20;;
45316;SDS011;31053;55.870;37.592;2023-02-04T06:00:48;6.85;;;4.28;;
45316;SDS011;31053;55.870;37.592;2023-02-04T06:03:53;5.65;;;3.47;;
45316;SDS011;31053;55.870;37.592;2023-02-04T06:06:58;11.18;;;6.00;;
45316;SDS011;31053;55.870;37.592;2023-02-04T06:10:02;8.88;;;4.13;;
45316;SDS011;31053;55.870;37.592;2023-02-04T06:13:07;13.38;;;6.93;;
45316;SDS011;31053;55.870;37.592;2023-02-04T06:16:12;7.78;;;4.75;;
45316;SDS011;31053;55.870;37.592;2023-02-04T06:19:17;21.48;;;6.60;;
45316;SDS011;31053;55.870;37.592;2023-02-04T06:22:21;7.32;;;4.30;;
45316;SDS011;31053;55.870;37.592;2023-02-04T06:25:27;16.30;;;5.45;;
45316;SDS011;31053;55.870;37.592;2023-02-04T06:28:32;9.07;;;5.05;;
45316;SDS011;31053;55.870;37.592;2023-02-04T06:31:36;7.97;;;4.00;;
45316;SDS011;31053;55.870;37.592;2023-02-04T06:34:42;5.05;;;3.10;;
45316;SDS011;31053;55.870;37.592;2023-02-04T06:37:47;16.45;;;7.15;;
45316;SDS011;31053;55.870;37.592;2023-02-04T06:40:52;10.38;;;5.15;;
45316;SDS011;31053;55.870;37.592;2023-02-04T06:43:57;14.45;;;6.75;;
45316;SDS011;31053;55.870;37.592;2023-02-04T06:47:01;10.70;;;4.60;;
45316;SDS011;31053;55.870;37.592;2023-02-04T06:50:06;10.15;;;5.10;;
45316;SDS011;31053;55.870;37.592;2023-02-04T06:53:12;10.43;;;5.75;;
45316;SDS011;31053;55.870;37.592;2023-02-04T06:56:17;8.93;;;5.03;;
45316;SDS011;31053;55.870;37.592;2023-02-04T06:59:22;9.98;;;5.15;;
45316;SDS011;31053;55.870;37.592;2023-02-04T07:02:28;9.90;;;5.18;;
45316;SDS011;31053;55.870;37.592;2023-02-04T07:05:33;14.80;;;6.00;;
45316;SDS011;31053;55.870;37.592;2023-02-04T07:08:38;7.13;;;3.83;;
45316;SDS011;31053;55.870;37.592;2023-02-04T07:11:42;9.15;;;4.43;;
45316;SDS011;31053;55.870;37.592;2023-02-04T07:14:48;8.05;;;3.70;;
45316;SDS011;31053;55.870;37.592;2023-02-04T07:17:52;15.13;;;6.15;;
45316;SDS011;31053;55.870;37.592;2023-02-04T07:20:57;17.60;;;5.45;;
45316;SDS011;31053;55.870;37.592;2023-02-04T07:24:01;8.90;;;4.95;;
45316;SDS011;31053;55.870;37.592;2023-02-04T07:27:06;11.80;;;5.78;;
45316;SDS011;31053;55.870;37.592;2023-02-04T07:30:13;12.38;;;5.57;;
45316;SDS011;31053;55.870;37.592;2023-02-04T07:33:18;8.88;;;5.47;;
45316;SDS011;31053;55.870;37.592;2023-02-04T07:36:23;13.25;;;5.70;;
45316;SDS011;31053;55.870;37.592;2023-02-04T07:39:27;9.13;;;4.57;;
45316;SDS011;31053;55.870;37.592;2023-02-04T07:42:31;15.80;;;5.68;;
45316;SDS011;31053;55.870;37.592;2023-02-04T07:45:44;15.32;;;7.32;;
45316;SDS011;31053;55.870;37.592;2023-02-04T07:48:54;14.35;;;6.47;;
45316;SDS011;31053;55.870;37.592;2023-02-04T07:52:05;18.83;;;8.88;;
45316;SDS011;31053;55.870;37.592;2023-02-04T07:55:25;12.70;;;6.90;;
45316;SDS011;31053;55.870;37.592;2023-02-04T07:58:34;12.77;;;6.43;;
45316;SDS011;31053;55.870;37.592;2023-02-04T08:01:40;15.25;;;7.90;;
45316;SDS011;31053;55.870;37.592;2023-02-04T08:04:54;31.27;;;9.80;;
45316;SDS011;31053;55.870;37.592;2023-02-04T08:08:02;27.52;;;9.57;;
45316;SDS011;31053;55.870;37.592;2023-02-04T08:11:07;12.57;;;7.60;;
45316;SDS011;31053;55.870;37.592;2023-02-04T08:14:12;13.65;;;7.75;;
45316;SDS011;31053;55.870;37.592;2023-02-04T08:17:17;13.55;;;6.93;;
45316;SDS011;31053;55.870;37.592;2023-02-04T08:20:23;13.82;;;7.65;;
45316;SDS011;31053;55.870;37.592;2023-02-04T08:23:27;16.65;;;7.75;;
45316;SDS011;31053;55.870;37.592;2023-02-04T08:26:32;11.60;;;6.78;;
45316;SDS011;31053;55.870;37.592;2023-02-04T08:29:37;11.98;;;6.82;;
45316;SDS011;31053;55.870;37.592;2023-02-04T08:32:42;16.48;;;9.00;;
45316;SDS011;31053;55.870;37.592;2023-02-04T08:35:47;17.30;;;8.85;;
45316;SDS011;31053;55.870;37.592;2023-02-04T08:38:55;20.17;;;10.88;;
45316;SDS011;31053;55.870;37.592;2023-02-04T08:42:00;20.48;;;9.75;;
45316;SDS011;31053;55.870;37.592;2023-02-04T08:45:06;17.27;;;9.50;;
45316;SDS011;31053;55.870;37.592;2023-02-04T08:48:10;14.30;;;6.40;;
45316;SDS011;31053;55.870;37.592;2023-02-04T08:51:14;17.10;;;8.73;;
45316;SDS011;31053;55.870;37.592;2023-02-04T08:54:20;17.10;;;8.15;;
45316;SDS011;31053;55.870;37.592;2023-02-04T08:57:25;21.50;;;9.15;;
45316;SDS011;31053;55.870;37.592;2023-02-04T09:00:29;19.20;;;10.07;;
45316;SDS011;31053;55.870;37.592;2023-02-04T09:03:34;27.83;;;13.13;;
45316;SDS011;31053;55.870;37.592;2023-02-04T09:06:39;24.00;;;10.40;;
45316;SDS011;31053;55.870;37.592;2023-02-04T09:09:43;37.67;;;13.55;;
45316;SDS011;31053;55.870;37.592;2023-02-04T09:12:49;25.83;;;10.40;;
45316;SDS011;31053;55.870;37.592;2023-02-04T09:15:59;18.45;;;9.38;;
45316;SDS011;31053;55.870;37.592;2023-02-04T09:19:04;19.00;;;8.20;;
45316;SDS011;31053;55.870;37.592;2023-02-04T09:22:12;13.93;;;7.75;;
45316;SDS011;31053;55.870;37.592;2023-02-04T09:25:17;30.10;;;15.65;;
45316;SDS011;31053;55.870;37.592;2023-02-04T09:28:21;22.48;;;9.15;;
45316;SDS011;31053;55.870;37.592;2023-02-04T09:31:26;20.50;;;9.80;;
45316;SDS011;31053;55.870;37.592;2023-02-04T09:34:31;14.50;;;7.60;;
45316;SDS011;31053;55.870;37.592;2023-02-04T09:37:38;25.50;;;14.18;;
45316;SDS011;31053;55.870;37.592;2023-02-04T09:40:44;32.88;;;13.35;;
45316;SDS011;31053;55.870;37.592;2023-02-04T09:43:52;27.23;;;10.05;;
45316;SDS011;31053;55.870;37.592;2023-02-04T09:46:58;32.35;;;13.80;;
45316;SDS011;31053;55.870;37.592;2023-02-04T09:50:04;18.63;;;10.57;;
45316;SDS011;31053;55.870;37.592;2023-02-04T09:53:13;21.42;;;10.38;;
45316;SDS011;31053;55.870;37.592;2023-02-04T09:56:26;18.08;;;9.57;;
45316;SDS011;31053;55.870;37.592;2023-02-04T09:59:31;30.70;;;13.02;;
45316;SDS011;31053;55.870;37.592;2023-02-04T10:02:38;19.73;;;9.02;;
45316;SDS011;31053;55.870;37.592;2023-02-04T10:05:44;19.77;;;10.38;;
45316;SDS011;31053;55.870;37.592;2023-02-04T10:08:50;36.17;;;14.98;;
45316;SDS011;31053;55.870;37.592;2023-02-04T10:11:55;16.15;;;8.93;;
45316;SDS011;31053;55.870;37.592;2023-02-04T10:14:59;16.98;;;8.48;;
45316;SDS011;31053;55.870;37.592;2023-02-04T10:18:08;26.83;;;12.02;;
45316;SDS011;31053;55.870;37.592;2023-02-04T10:21:16;33.55;;;15.07;;
45316;SDS011;31053;55.870;37.592;2023-02-04T10:24:22;13.70;;;7.25;;
45316;SDS011;31053;55.870;37.592;2023-02-04T10:27:29;28.80;;;12.65;;
45316;SDS011;31053;55.870;37.592;2023-02-04T10:30:39;19.27;;;9.20;;
45316;SDS011;31053;55.870;37.592;2023-02-04T10:33:44;15.32;;;6.88;;
45316;SDS011;31053;55.870;37.592;2023-02-04T10:36:50;20.80;;;10.95;;
45316;SDS011;31053;55.870;37.592;2023-02-04T10:43:07;21.10;;;8.98;;
45316;SDS011;31053;55.870;37.592;2023-02-04T10:46:18;21.58;;;9.52;;
45316;SDS011;31053;55.870;37.592;2023-02-04T10:49:23;22.17;;;10.38;;
45316;SDS011;31053;55.870;37.592;2023-02-04T10:52:37;24.20;;;10.68;;
45316;SDS011;31053;55.870;37.592;2023-02-04T10:55:43;39.63;;;16.73;;
45316;SDS011;31053;55.870;37.592;2023-02-04T11:02:01;40.92;;;17.88;;
45316;SDS011;31053;55.870;37.592;2023-02-04T11:05:38;26.55;;;11.27;;
45316;SDS011;31053;55.870;37.592;2023-02-04T11:08:43;21.17;;;10.65;;
45316;SDS011;31053;55.870;37.592;2023-02-04T11:11:49;42.90;;;17.20;;
45316;SDS011;31053;55.870;37.592;2023-02-04T11:14:55;18.67;;;9.80;;
45316;SDS011;31053;55.870;37.592;2023-02-04T11:18:10;30.27;;;14.82;;
45316;SDS011;31053;55.870;37.592;2023-02-04T11:21:39;34.17;;;14.57;;
45316;SDS011;31053;55.870;37.592;2023-02-04T11:24:48;17.42;;;9.18;;
45316;SDS011;31053;55.870;37.592;2023-02-04T11:27:53;18.67;;;9.32;;
45316;SDS011;31053;55.870;37.592;2023-02-04T11:30:59;29.83;;;11.18;;
45316;SDS011;31053;55.870;37.592;2023-02-04T11:37:38;17.30;;;8.32;;
45316;SDS011;31053;55.870;37.592;2023-02-04T11:40:46;16.63;;;8.80;;
45316;SDS011;31053;55.870;37.592;2023-02-04T11:44:00;24.40;;;10.35;;
45316;SDS011;31053;55.870;37.592;2023-02-04T11:47:06;20.35;;;8.80;;
45316;SDS011;31053;55.870;37.592;2023-02-04T11:50:21;23.17;;;9.18;;
45316;SDS011;31053;55.870;37.592;2023-02-04T11:53:33;41.65;;;15.65;;
45316;SDS011;31053;55.870;37.592;2023-02-04T11:56:38;24.88;;;11.70;;
45316;SDS011;31053;55.870;37.592;2023-02-04T11:59:43;32.03;;;13.05;;
45316;SDS011;31053;55.870;37.592;2023-02-04T12:02:49;36.58;;;16.92;;
45316;SDS011;31053;55.870;37.592;2023-02-04T12:06:00;27.15;;;14.23;;
45316;SDS011;31053;55.870;37.592;2023-02-04T12:09:22;21.30;;;10.82;;
45316;SDS011;31053;55.870;37.592;2023-02-04T12:12:29;26.17;;;9.68;;
45316;SDS011;31053;55.870;37.592;2023-02-04T12:15:34;21.92;;;11.80;;
45316;SDS011;31053;55.870;37.592;2023-02-04T12:18:39;19.05;;;9.35;;
45316;SDS011;31053;55.870;37.592;2023-02-04T12:21:43;25.17;;;10.23;;
45316;SDS011;31053;55.870;37.592;2023-02-04T12:24:48;17.50;;;8.60;;
45316;SDS011;31053;55.870;37.592;2023-02-04T12:27:55;19.55;;;9.55;;
45316;SDS011;31053;55.870;37.592;2023-02-04T12:31:00;19.08;;;9.20;;
45316;SDS011;31053;55.870;37.592;2023-02-04T12:34:09;19.67;;;11.60;;
45316;SDS011;31053;55.870;37.592;2023-02-04T12:37:16;21.15;;;9.30;;
45316;SDS011;31053;55.870;37.592;2023-02-04T12:40:22;14.57;;;7.10;;
45316;SDS011;31053;55.870;37.592;2023-02-04T12:43:27;26.33;;;10.82;;
45316;SDS011;31053;55.870;37.592;2023-02-04T12:46:32;26.13;;;11.02;;
45316;SDS011;31053;55.870;37.592;2023-02-04T12:49:40;26.35;;;10.75;;
45316;SDS011;31053;55.870;37.592;2023-02-04T12:52:45;24.45;;;10.07;;
45316;SDS011;31053;55.870;37.592;2023-02-04T12:55:49;21.92;;;9.65;;
45316;SDS011;31053;55.870;37.592;2023-02-04T12:58:54;17.42;;;8.57;;
45316;SDS011;31053;55.870;37.592;2023-02-04T13:01:59;16.42;;;6.43;;
45316;SDS011;31053;55.870;37.592;2023-02-04T13:05:04;12.02;;;5.72;;
45316;SDS011;31053;55.870;37.592;2023-02-04T13:08:09;11.93;;;5.38;;
45316;SDS011;31053;55.870;37.592;2023-02-04T13:11:14;12.13;;;6.63;;
45316;SDS011;31053;55.870;37.592;2023-02-04T13:14:19;13.98;;;6.93;;
45316;SDS011;31053;55.870;37.592;2023-02-04T13:17:25;12.57;;;5.75;;
45316;SDS011;31053;55.870;37.592;2023-02-04T13:20:30;14.27;;;6.47;;
45316;SDS011;31053;55.870;37.592;2023-02-04T13:23:37;16.10;;;6.78;;
45316;SDS011;31053;55.870;37.592;2023-02-04T13:26:46;24.35;;;9.75;;
45316;SDS011;31053;55.870;37.592;2023-02-04T13:29:54;16.48;;;6.80;;
45316;SDS011;31053;55.870;37.592;2023-02-04T13:33:00;23.38;;;10.50;;
45316;SDS011;31053;55.870;37.592;2023-02-04T13:36:07;18.02;;;8.02;;
45316;SDS011;31053;55.870;37.592;2023-02-04T13:39:12;16.42;;;7.65;;
45316;SDS011;31053;55.870;37.592;2023-02-04T13:42:21;20.70;;;9.50;;
45316;SDS011;31053;55.870;37.592;2023-02-04T13:45:26;18.33;;;8.15;;
45316;SDS011;31053;55.870;37.592;2023-02-04T13:48:31;15.85;;;7.80;;
45316;SDS011;31053;55.870;37.592;2023-02-04T13:51:35;34.60;;;14.18;;
45316;SDS011;31053;55.870;37.592;2023-02-04T13:54:39;21.17;;;9.23;;
45316;SDS011;31053;55.870;37.592;2023-02-04T13:57:44;13.73;;;7.10;;
45316;SDS011;31053;55.870;37.592;2023-02-04T14:00:49;13.50;;;6.50;;
45316;SDS011;31053;55.870;37.592;2023-02-04T14:03:54;17.20;;;6.53;;
45316;SDS011;31053;55.870;37.592;2023-02-04T14:06:59;13.30;;;6.47;;
45316;SDS011;31053;55.870;37.592;2023-02-04T14:10:04;26.25;;;8.80;;
45316;SDS011;31053;55.870;37.592;2023-02-04T14:13:09;20.70;;;10.00;;
45316;SDS011;31053;55.870;37.592;2023-02-04T14:16:14;17.35;;;7.05;;
45316;SDS011;31053;55.870;37.592;2023-02-04T14:19:19;16.23;;;7.88;;
45316;SDS011;31053;55.870;37.592;2023-02-04T14:22:27;27.98;;;12.68;;
45316;SDS011;31053;55.870;37.592;2023-02-04T14:25:31;30.95;;;12.70;;
45316;SDS011;31053;55.870;37.592;2023-02-04T14:28:37;32.45;;;15.50;;
45316;SDS011;31053;55.870;37.592;2023-02-04T14:31:42;40.10;;;14.20;;
45316;SDS011;31053;55.870;37.592;2023-02-04T14:34:50;27.60;;;11.85;;
45316;SDS011;31053;55.870;37.592;2023-02-04T14:37:54;23.02;;;11.15;;
45316;SDS011;31053;55.870;37.592;2023-02-04T14:40:59;31.80;;;14.40;;
45316;SDS011;31053;55.870;37.592;2023-02-04T14:44:23;32.00;;;12.05;;
45316;SDS011;31053;55.870;37.592;2023-02-04T14:47:41;29.05;;;12.52;;
45316;SDS011;31053;55.870;37.592;2023-02-04T14:50:48;27.77;;;10.35;;
45316;SDS011;31053;55.870;37.592;2023-02-04T14:53:54;32.10;;;13.43;;
45316;SDS011;31053;55.870;37.592;2023-02-04T14:57:07;26.85;;;13.20;;
45316;SDS011;31053;55.870;37.592;2023-02-04T15:00:14;28.33;;;11.80;;
45316;SDS011;31053;55.870;37.592;2023-02-04T15:03:20;27.75;;;12.70;;
45316;SDS011;31053;55.870;37.592;2023-02-04T15:06:26;24.92;;;12.05;;
45316;SDS011;31053;55.870;37.592;2023-02-04T15:09:39;29.65;;;12.98;;
45316;SDS011;31053;55.870;37.592;2023-02-04T15:12:57;25.15;;;11.82;;
45316;SDS011;31053;55.870;37.592;2023-02-04T15:16:02;17.58;;;8.25;;
45316;SDS011;31053;55.870;37.592;2023-02-04T15:19:07;35.17;;;8.73;;
45316;SDS011;31053;55.870;37.592;2023-02-04T15:22:14;14.95;;;6.80;;
45316;SDS011;31053;55.870;37.592;2023-02-04T15:25:19;17.73;;;6.88;;
45316;SDS011;31053;55.870;37.592;2023-02-04T15:28:23;15.48;;;7.18;;
45316;SDS011;31053;55.870;37.592;2023-02-04T15:31:30;13.70;;;6.93;;
45316;SDS011;31053;55.870;37.592;2023-02-04T15:34:35;22.65;;;11.60;;
45316;SDS011;31053;55.870;37.592;2023-02-04T15:37:39;17.50;;;7.60;;
45316;SDS011;31053;55.870;37.592;2023-02-04T15:40:45;18.75;;;9.10;;
45316;SDS011;31053;55.870;37.592;2023-02-04T15:43:51;16.73;;;8.70;;
45316;SDS011;31053;55.870;37.592;2023-02-04T15:46:56;20.52;;;10.55;;
45316;SDS011;31053;55.870;37.592;2023-02-04T15:50:00;22.98;;;10.90;;
45316;SDS011;31053;55.870;37.592;2023-02-04T15:53:12;15.48;;;7.28;;
45316;SDS011;31053;55.870;37.592;2023-02-04T15:56:23;16.90;;;8.77;;
45316;SDS011;31053;55.870;37.592;2023-02-04T15:59:27;19.20;;;9.15;;
45316;SDS011;31053;55.870;37.592;2023-02-04T16:02:32;14.95;;;7.07;;
45316;SDS011;31053;55.870;37.592;2023-02-04T16:05:37;16.30;;;7.18;;
45316;SDS011;31053;55.870;37.592;2023-02-04T16:08:42;10.95;;;5.55;;
45316;SDS011;31053;55.870;37.592;2023-02-04T16:11:47;13.80;;;6.13;;
45316;SDS011;31053;55.870;37.592;2023-02-04T16:14:51;15.30;;;6.32;;
45316;SDS011;31053;55.870;37.592;2023-02-04T16:17:56;12.00;;;5.43;;
45316;SDS011;31053;55.870;37.592;2023-02-04T16:21:00;12.15;;;6.97;;
45316;SDS011;31053;55.870;37.592;2023-02-04T16:24:06;21.40;;;9.48;;
45316;SDS011;31053;55.870;37.592;2023-02-04T16:27:11;12.27;;;6.90;;
45316;SDS011;31053;55.870;37.592;2023-02-04T16:30:16;19.85;;;8.55;;
45316;SDS011;31053;55.870;37.592;2023-02-04T16:33:21;15.48;;;7.10;;
45316;SDS011;31053;55.870;37.592;2023-02-04T16:36:26;19.10;;;9.02;;
45316;SDS011;31053;55.870;37.592;2023-02-04T16:39:30;13.23;;;7.22;;
45316;SDS011;31053;55.870;37.592;2023-02-04T16:42:35;13.55;;;7.03;;
45316;SDS011;31053;55.870;37.592;2023-02-04T16:45:40;21.10;;;9.45;;
45316;SDS011;31053;55.870;37.592;2023-02-04T16:48:45;11.50;;;5.60;;
45316;SDS011;31053;55.870;37.592;2023-02-04T16:51:53;11.23;;;5.32;;
45316;SDS011;31053;55.870;37.592;2023-02-04T16:55:02;18.42;;;8.77;;
45316;SDS011;31053;55.870;37.592;2023-02-04T16:58:08;25.40;;;11.38;;
45316;SDS011;31053;55.870;37.592;2023-02-04T17:01:17;14.60;;;6.70;;
45316;SDS011;31053;55.870;37.592;2023-02-04T17:04:22;17.83;;;8.30;;
45316;SDS011;31053;55.870;37.592;2023-02-04T17:07:28;15.67;;;7.57;;
45316;SDS011;31053;55.870;37.592;2023-02-04T17:10:32;19.88;;;10.05;;
45316;SDS011;31053;55.870;37.592;2023-02-04T17:14:05;21.33;;;8.68;;
45316;SDS011;31053;55.870;37.592;2023-02-04T17:17:17;19.45;;;8.43;;
45316;SDS011;31053;55.870;37.592;2023-02-04T17:20:22;18.40;;;8.82;;
45316;SDS011;31053;55.870;37.592;2023-02-04T17:23:56;14.50;;;7.00;;
45316;SDS011;31053;55.870;37.592;2023-02-04T17:27:14;17.38;;;8.10;;
45316;SDS011;31053;55.870;37.592;2023-02-04T17:30:34;15.85;;;6.93;;
45316;SDS011;31053;55.870;37.592;2023-02-04T17:33:48;9.88;;;5.13;;
45316;SDS011;31053;55.870;37.592;2023-02-04T17:40:37;18.25;;;7.32;;
45316;SDS011;31053;55.870;37.592;2023-02-04T17:44:11;19.52;;;9.32;;
45316;SDS011;31053;55.870;37.592;2023-02-04T17:47:22;15.50;;;7.38;;
45316;SDS011;31053;55.870;37.592;2023-02-04T17:50:27;22.15;;;8.90;;
45316;SDS011;31053;55.870;37.592;2023-02-04T17:53:36;16.73;;;8.80;;
45316;SDS011;31053;55.870;37.592;2023-02-04T17:56:43;26.40;;;11.43;;
45316;SDS011;31053;55.870;37.592;2023-02-04T17:59:49;24.63;;;10.45;;
45316;SDS011;31053;55.870;37.592;2023-02-04T18:02:54;17.20;;;8.63;;
45316;SDS011;31053;55.870;37.592;2023-02-04T18:05:59;15.98;;;8.25;;
45316;SDS011;31053;55.870;37.592;2023-02-04T18:09:17;21.05;;;9.10;;
45316;SDS011;31053;55.870;37.592;2023-02-04T18:12:23;15.55;;;7.28;;
45316;SDS011;31053;55.870;37.592;2023-02-04T18:15:29;16.58;;;8.23;;
45316;SDS011;31053;55.870;37.592;2023-02-04T18:18:35;15.60;;;6.70;;
45316;SDS011;31053;55.870;37.592;2023-02-04T18:21:41;18.08;;;8.60;;
45316;SDS011;31053;55.870;37.592;2023-02-04T18:24:46;12.65;;;6.18;;
45316;SDS011;31053;55.870;37.592;2023-02-04T18:27:51;11.75;;;6.28;;
45316;SDS011;31053;55.870;37.592;2023-02-04T18:30:56;18.38;;;8.32;;
45316;SDS011;31053;55.870;37.592;2023-02-04T18:34:17;15.48;;;7.60;;